Piper Memorial (LHV)
Lock Haven, PA
Field Elevation: 556
Lat: 41°08.15N  Long: 77°25.34W
CTAF/Unicom Freq: 122.8000
   
    
Weather Advisories
2017-02-19   21:07 Z
Altimeter 29.87" Hg
Wind 300° @ 9 KT
Gusts 14 KT
Visibility --
Temperature 19° C (66° F)
Dewpoint -1° C (30° F)
Relative Humidity 26%
Density Altitude --
Condensation Altitude 10,600 feet
Wind and Runways
Indicated Runway = 27
Headwind = 8 kt
Crosswind = 4 kt
History
 
 
 
More Info
All DigiWx sites map
Weather Radar
NOAA Forecast
 
Airport IQ 5010
(PS81) Robert Packer Hospital
(74PN) Altoona Regional
 
about DigiWx
 
FAA Disclaimer: The data displayed is for advisory purposes only and is not to be used for flight planning or operations. For official data, please call (not available) to hear the current automated AWOS voice message.
  METAR LHV 192107Z AUTO 30009G14KT 19/M01 A2987